Time;durP1;ratioP1;P1;durP2;ratioP2;P2;SDS_P1;SDS_P2;PMS_P1;PMS_P2;Temp;Humidity;BMP_temperature;BMP_pressure;BME280_temperature;BME280_humidity;BME280_pressure;Samples;Min_cycle;Max_cycle;Signal;HPM_P1;HPM_P2
2021/04/19 00:01:11;;;;;;;11.67;10.53;;;11.00;60.80;;;;;;4953228;29;20182;-86
2021/04/19 00:03:36;;;;;;;12.90;11.90;;;10.90;61.10;;;;;;4954711;28;20252;-86
2021/04/19 00:06:02;;;;;;;11.77;10.97;;;10.80;61.70;;;;;;4957308;29;20210;-86
2021/04/19 00:08:28;;;;;;;12.27;11.20;;;10.70;62.10;;;;;;4958361;29;20171;-86
2021/04/19 00:10:54;;;;;;;13.43;11.83;;;10.70;62.10;;;;;;4958389;29;20418;-86
2021/04/19 00:13:20;;;;;;;13.43;12.27;;;10.60;62.30;;;;;;4958264;29;20410;-87
2021/04/19 00:15:46;;;;;;;12.70;11.60;;;10.50;62.80;;;;;;4958336;29;20429;-87
2021/04/19 00:18:12;;;;;;;14.20;13.00;;;10.50;62.80;;;;;;4958256;29;20418;-87
2021/04/19 00:20:37;;;;;;;14.43;13.13;;;10.50;64.80;;;;;;4958208;29;20530;-87
2021/04/19 00:23:03;;;;;;;13.40;11.73;;;10.30;66.70;;;;;;4958145;29;20178;-86
2021/04/19 00:25:29;;;;;;;14.70;13.30;;;10.40;66.50;;;;;;4958046;29;20206;-87
2021/04/19 00:27:54;;;;;;;13.57;12.37;;;10.40;64.90;;;;;;4956839;29;20600;-86
2021/04/19 00:30:22;;;;;;;13.87;12.70;;;10.50;64.40;;;;;;4957969;29;20705;-87
2021/04/19 00:32:48;;;;;;;14.13;12.93;;;10.40;64.60;;;;;;4957908;29;20308;-87
2021/04/19 00:35:14;;;;;;;13.67;12.57;;;10.30;64.90;;;;;;4957984;29;20925;-87
2021/04/19 00:37:40;;;;;;;13.67;12.57;;;10.20;65.10;;;;;;4957913;29;20171;-87
2021/04/19 00:40:08;;;;;;;14.00;12.80;;;10.20;65.20;;;;;;4956633;29;20922;-87
2021/04/19 00:42:34;;;;;;;13.93;12.73;;;10.20;64.90;;;;;;4956495;29;20175;-87
2021/04/19 00:45:00;;;;;;;15.73;11.90;;;10.20;64.70;;;;;;4957634;29;20525;-87
2021/04/19 00:47:26;;;;;;;14.47;13.07;;;10.30;64.40;;;;;;4957775;29;20509;-87
2021/04/19 00:49:51;;;;;;;13.10;12.10;;;10.10;65.60;;;;;;4957728;29;20171;-87
2021/04/19 00:52:18;;;;;;;15.43;14.13;;;10.10;66.30;;;;;;4957643;29;20253;-87
2021/04/19 00:54:43;;;;;;;13.53;12.43;;;10.10;66.20;;;;;;4957743;29;20170;-87
2021/04/19 00:57:09;;;;;;;12.87;11.90;;;10.20;65.40;;;;;;4957638;29;20422;-86
2021/04/19 00:59:35;;;;;;;14.03;12.80;;;10.30;64.50;;;;;;4957611;29;20175;-87
2021/04/19 01:02:01;;;;;;;13.73;12.53;;;10.30;65.00;;;;;;4957354;29;20171;-87
2021/04/19 01:04:26;;;;;;;13.60;12.50;;;10.40;65.10;;;;;;4957545;29;20174;-87
2021/04/19 01:06:53;;;;;;;14.90;13.37;;;10.20;64.80;;;;;;4975100;28;20461;-86
2021/04/19 01:09:19;;;;;;;13.90;12.40;;;10.80;66.10;;;;;;4976895;28;20177;-87
2021/04/19 01:11:45;;;;;;;16.57;15.20;;;10.30;64.80;;;;;;4976640;28;20418;-87
2021/04/19 01:14:11;;;;;;;19.67;17.40;;;10.30;64.00;;;;;;4975316;28;20174;-87
2021/04/19 01:16:37;;;;;;;18.80;16.93;;;10.30;64.10;;;;;;4975678;28;20193;-86
2021/04/19 01:19:02;;;;;;;18.73;16.87;;;10.20;64.10;;;;;;4976443;28;20413;-87
2021/04/19 01:21:28;;;;;;;20.60;18.60;;;10.10;64.60;;;;;;4975194;28;20173;-86
2021/04/19 01:23:53;;;;;;;20.80;18.90;;;10.00;65.30;;;;;;4976421;28;20170;-86
2021/04/19 01:26:19;;;;;;;20.43;18.40;;;10.00;66.10;;;;;;4976428;28;20303;-87
2021/04/19 01:28:45;;;;;;;16.50;15.10;;;9.80;67.80;;;;;;4976380;28;20162;-87
2021/04/19 01:31:10;;;;;;;18.70;16.77;;;9.90;67.60;;;;;;4976487;28;20182;-87
2021/04/19 01:33:36;;;;;;;17.67;15.87;;;10.00;65.40;;;;;;4974988;28;20249;-87
2021/04/19 01:36:02;;;;;;;17.97;16.30;;;9.90;66.90;;;;;;4976141;28;20240;-87
2021/04/19 01:38:28;;;;;;;16.43;15.00;;;9.90;67.20;;;;;;4976882;28;20261;-87
2021/04/19 01:40:54;;;;;;;17.97;16.37;;;9.90;66.90;;;;;;4975838;28;20465;-87
2021/04/19 01:43:20;;;;;;;17.60;14.50;;;9.90;67.10;;;;;;4975423;28;20173;-87
2021/04/19 01:45:47;;;;;;;16.03;14.63;;;9.80;67.30;;;;;;4974746;28;20469;-87
2021/04/19 01:48:13;;;;;;;17.60;15.93;;;9.90;67.50;;;;;;4975871;28;20413;-87
2021/04/19 01:50:39;;;;;;;17.50;16.00;;;9.90;67.50;;;;;;4975695;28;20410;-86
2021/04/19 01:53:06;;;;;;;17.03;15.43;;;9.80;67.50;;;;;;4975784;28;20433;-86
2021/04/19 01:55:34;;;;;;;19.07;17.37;;;10.00;65.70;;;;;;4976049;28;20181;-86
2021/04/19 01:58:03;;;;;;;16.50;15.10;;;9.90;67.90;;;;;;4975812;28;21016;-86
2021/04/19 02:00:32;;;;;;;18.50;16.80;;;9.90;68.20;;;;;;4975910;28;20409;-87
2021/04/19 02:03:06;;;;;;;18.40;16.47;;;9.90;68.50;;;;;;4975696;28;20417;-87
2021/04/19 02:05:49;;;;;;;17.07;15.30;;;9.90;68.50;;;;;;4974640;28;20467;-86
2021/04/19 02:08:51;;;;;;;18.47;16.30;;;9.90;68.60;;;;;;4975725;28;20421;-87
2021/04/19 02:11:48;;;;;;;16.70;15.40;;;9.90;68.40;;;;;;4975606;28;20496;-87
2021/04/19 02:14:39;;;;;;;19.73;16.20;;;10.10;65.90;;;;;;4975511;28;20413;-86
2021/04/19 02:17:26;;;;;;;16.67;15.10;;;10.20;65.50;;;;;;4975813;28;20405;-86
2021/04/19 02:20:02;;;;;;;16.57;15.03;;;10.20;65.60;;;;;;4975904;28;20492;-85
2021/04/19 02:22:40;;;;;;;18.25;15.50;;;10.10;66.40;;;;;;4975871;28;20417;-86
2021/04/19 02:25:18;;;;;;;18.60;16.97;;;10.00;66.70;;;;;;4975433;28;20516;-87
2021/04/19 02:27:48;;;;;;;19.70;17.80;;;10.00;67.70;;;;;;4973884;28;20824;-86
2021/04/19 02:30:16;;;;;;;19.67;17.80;;;9.90;70.00;;;;;;4975059;28;20810;-86
2021/04/19 02:32:48;;;;;;;19.13;17.40;;;9.80;70.80;;;;;;4974843;28;20539;-86
2021/04/19 02:35:21;;;;;;;19.83;17.83;;;9.90;71.10;;;;;;4975049;28;20422;-86
2021/04/19 02:37:48;;;;;;;22.07;20.17;;;9.80;71.40;;;;;;4973782;28;20920;-86
2021/04/19 02:40:15;;;;;;;20.00;18.00;;;9.80;72.00;;;;;;4974959;28;20860;-85
2021/04/19 02:42:43;;;;;;;18.38;16.58;;;9.80;72.20;;;;;;4974838;28;20397;-87
2021/04/19 02:45:12;;;;;;;16.37;14.83;;;9.80;72.50;;;;;;4975031;28;20178;-86
2021/04/19 02:47:40;;;;;;;18.40;16.80;;;9.80;72.80;;;;;;4975164;28;20426;-86
2021/04/19 02:50:07;;;;;;;16.70;15.30;;;9.80;73.20;;;;;;4974829;28;20417;-86
2021/04/19 02:52:35;;;;;;;18.03;16.13;;;9.70;73.40;;;;;;4973498;28;20182;-86
2021/04/19 02:55:01;;;;;;;17.70;16.03;;;9.70;74.20;;;;;;4974610;28;20413;-87
2021/04/19 02:57:35;;;;;;;17.40;15.80;;;9.70;74.30;;;;;;4973502;28;20952;-86
2021/04/19 03:00:03;;;;;;;16.90;15.40;;;9.70;75.00;;;;;;4974651;28;20508;-87
2021/04/19 03:02:32;;;;;;;18.87;16.17;;;9.70;75.00;;;;;;4974604;28;20410;-88
2021/04/19 03:04:59;;;;;;;17.30;15.70;;;9.70;74.80;;;;;;4974615;28;20460;-87
2021/04/19 03:07:30;;;;;;;19.50;17.70;;;9.70;75.00;;;;;;4974572;28;20429;-87
2021/04/19 03:10:00;;;;;;;19.20;17.30;;;9.70;75.60;;;;;;4974412;28;20460;-87
2021/04/19 03:12:30;;;;;;;19.70;17.70;;;9.70;76.10;;;;;;4974424;28;20414;-88
2021/04/19 03:15:03;;;;;;;19.70;18.00;;;9.60;76.40;;;;;;4974522;28;20412;-87
2021/04/19 03:17:29;;;;;;;19.00;17.23;;;9.60;76.70;;;;;;4974755;28;20424;-87
2021/04/19 03:20:06;;;;;;;19.40;17.70;;;9.70;76.90;;;;;;4974404;28;20496;-88
2021/04/19 03:22:36;;;;;;;18.93;17.30;;;9.70;77.40;;;;;;4974367;28;20831;-88
2021/04/19 03:25:03;;;;;;;18.10;16.20;;;9.70;77.40;;;;;;4974262;28;20764;-87
2021/04/19 03:27:32;;;;;;;18.83;17.10;;;9.80;76.90;;;;;;4973484;28;20799;-89
2021/04/19 03:29:58;;;;;;;19.20;17.30;;;9.80;76.90;;;;;;4974419;28;20410;-86
2021/04/19 03:32:37;;;;;;;20.03;18.17;;;9.80;77.20;;;;;;4972873;28;20479;-87
2021/04/19 03:35:07;;;;;;;19.83;17.93;;;9.80;76.90;;;;;;4974132;28;20448;-85
2021/04/19 03:37:35;;;;;;;21.30;19.10;;;9.70;76.90;;;;;;4974239;28;20435;-87
2021/04/19 03:40:23;;;;;;;22.23;19.97;;;9.70;77.20;;;;;;4972374;28;20475;-86
2021/04/19 03:42:53;;;;;;;21.53;18.53;;;9.70;77.10;;;;;;4974379;28;20769;-87
2021/04/19 03:45:20;;;;;;;23.00;20.77;;;9.70;77.50;;;;;;4974218;28;20843;-87
2021/04/19 03:47:48;;;;;;;22.97;19.73;;;9.80;77.80;;;;;;4974141;28;20432;-87
2021/04/19 03:50:13;;;;;;;21.77;19.70;;;9.80;77.80;;;;;;4975068;28;20456;-86
2021/04/19 03:52:45;;;;;;;21.87;19.77;;;9.80;77.80;;;;;;4980928;28;20418;-86
2021/04/19 03:55:13;;;;;;;22.33;20.00;;;9.80;77.60;;;;;;4984822;28;20409;-86
2021/04/19 03:57:42;;;;;;;22.00;19.87;;;9.70;77.40;;;;;;4990447;28;20425;-87
2021/04/19 04:00:11;;;;;;;23.50;21.20;;;9.70;78.00;;;;;;4975566;28;20413;-86
2021/04/19 04:02:39;;;;;;;25.33;21.50;;;9.70;77.50;;;;;;4973979;28;20480;-86
2021/04/19 04:05:06;;;;;;;23.60;21.20;;;9.60;77.90;;;;;;4973806;28;20429;-85
2021/04/19 04:07:34;;;;;;;25.83;23.10;;;9.70;78.10;;;;;;4972768;28;20524;-86
2021/04/19 04:10:02;;;;;;;26.57;23.87;;;9.70;78.20;;;;;;4974541;28;20416;-87
2021/04/19 04:12:28;;;;;;;24.97;22.37;;;9.70;78.20;;;;;;4974169;28;20420;-87
2021/04/19 04:14:55;;;;;;;26.00;23.23;;;9.70;78.80;;;;;;4973901;28;20413;-86
2021/04/19 04:17:21;;;;;;;24.43;21.83;;;9.70;79.30;;;;;;4974125;28;20417;-87
2021/04/19 04:19:47;;;;;;;29.30;24.20;;;9.70;79.40;;;;;;4974072;28;20743;-86
2021/04/19 04:22:14;;;;;;;33.70;27.47;;;9.60;79.80;;;;;;4973949;28;20185;-86
2021/04/19 04:24:40;;;;;;;30.57;25.20;;;9.60;80.30;;;;;;4974170;28;20421;-87
2021/04/19 04:27:06;;;;;;;34.40;27.77;;;9.60;80.70;;;;;;4972680;28;20472;-87
2021/04/19 04:29:32;;;;;;;34.40;29.80;;;9.60;81.00;;;;;;4975244;28;20894;-88
2021/04/19 04:31:57;;;;;;;34.03;28.50;;;9.60;81.70;;;;;;4975167;28;20420;-88
2021/04/19 04:34:23;;;;;;;36.63;29.70;;;9.60;81.90;;;;;;4974315;28;20883;-88
2021/04/19 04:36:49;;;;;;;32.53;29.13;;;9.60;82.10;;;;;;4974390;28;20174;-86
2021/04/19 04:39:14;;;;;;;39.43;32.00;;;9.50;82.40;;;;;;4974060;28;20182;-88
2021/04/19 04:41:40;;;;;;;39.10;31.10;;;9.60;82.90;;;;;;4975078;28;20657;-87
2021/04/19 04:44:10;;;;;;;40.17;30.60;;;9.60;83.10;;;;;;4975685;28;20417;-86
2021/04/19 04:46:45;;;;;;;35.93;31.90;;;9.50;83.00;;;;;;4977283;28;20580;-87
2021/04/19 04:49:24;;;;;;;38.93;31.90;;;9.50;83.60;;;;;;4976571;28;20429;-87
2021/04/19 04:51:54;;;;;;;41.13;32.37;;;9.50;84.20;;;;;;4975637;28;20476;-88
2021/04/19 04:54:22;;;;;;;48.50;36.00;;;9.50;84.10;;;;;;4977668;28;20767;-88
2021/04/19 04:56:55;;;;;;;50.07;37.00;;;9.50;84.70;;;;;;4978160;28;20429;-88
2021/04/19 04:59:23;;;;;;;46.63;35.37;;;9.50;85.20;;;;;;4978086;28;20416;-88
2021/04/19 05:01:50;;;;;;;48.70;37.13;;;9.60;85.10;;;;;;4977740;28;20432;-88
2021/04/19 05:04:15;;;;;;;35.70;31.03;;;9.60;85.30;;;;;;4978649;28;20445;-88
2021/04/19 05:06:45;;;;;;;39.10;29.60;;;9.60;85.50;;;;;;4980654;28;20496;-83
2021/04/19 05:09:11;;;;;;;40.30;29.63;;;9.60;85.00;;;;;;4980065;28;20178;-89
2021/04/19 05:11:41;;;;;;;36.30;31.73;;;9.70;84.50;;;;;;4978716;28;20180;-88
2021/04/19 05:14:07;;;;;;;37.20;29.73;;;9.70;84.00;;;;;;4977630;28;20492;-87
2021/04/19 05:16:32;;;;;;;34.33;28.30;;;9.80;83.40;;;;;;4963952;28;20446;-88
2021/04/19 05:19:03;;;;;;;33.70;28.60;;;9.70;83.80;;;;;;4978980;28;20261;-87
2021/04/19 05:21:29;;;;;;;34.60;27.50;;;9.70;83.40;;;;;;4977733;28;20178;-87
2021/04/19 05:23:58;;;;;;;35.40;28.00;;;9.60;83.10;;;;;;4977563;28;20429;-88
2021/04/19 05:26:24;;;;;;;36.28;28.90;;;9.60;83.90;;;;;;4978392;28;20848;-87
2021/04/19 05:28:51;;;;;;;39.40;30.50;;;9.60;83.50;;;;;;4961326;28;20174;-89
2021/04/19 05:31:17;;;;;;;41.87;33.77;;;9.50;83.60;;;;;;4978447;28;20409;-89
2021/04/19 05:33:42;;;;;;;35.90;31.10;;;9.50;84.40;;;;;;4977702;28;20461;-86
2021/04/19 05:36:09;;;;;;;34.60;30.50;;;9.50;84.40;;;;;;4978602;28;20492;-88
2021/04/19 05:38:36;;;;;;;40.67;33.77;;;9.40;84.80;;;;;;4960807;28;20178;-87
2021/04/19 05:41:02;;;;;;;41.03;33.10;;;9.40;84.90;;;;;;4976511;28;20900;-88
2021/04/19 05:43:28;;;;;;;42.10;31.03;;;9.40;85.50;;;;;;4978649;28;20414;-89
2021/04/19 05:45:56;;;;;;;36.53;31.53;;;9.40;85.70;;;;;;4979091;28;20465;-86
2021/04/19 05:48:21;;;;;;;35.40;30.57;;;9.50;85.50;;;;;;4979240;28;20162;-89
2021/04/19 05:50:49;;;;;;;39.53;30.47;;;9.50;84.40;;;;;;4979199;28;20779;-89
2021/04/19 05:53:15;;;;;;;34.30;30.07;;;9.50;84.80;;;;;;4978173;28;20409;-87
2021/04/19 05:55:43;;;;;;;42.73;31.07;;;9.50;85.00;;;;;;4978998;28;20471;-88
2021/04/19 05:58:46;;;;;;;44.27;34.27;;;9.60;85.00;;;;;;4977475;28;20242;-90
2021/04/19 06:01:15;;;;;;;37.27;32.57;;;9.60;85.00;;;;;;4976703;28;20421;-90
2021/04/19 06:03:59;;;;;;;44.93;36.80;;;9.60;84.90;;;;;;4975719;28;20421;-89
2021/04/19 06:06:51;;;;;;;39.60;33.50;;;9.60;85.40;;;;;;4272681;28;10000178;-88
2021/04/19 06:09:23;;;;;;;39.40;32.23;;;9.60;86.10;;;;;;4976482;28;20174;-89
2021/04/19 06:11:57;;;;;;;43.50;35.57;;;9.60;85.70;;;;;;4974205;28;20429;-89
2021/04/19 06:14:28;;;;;;;43.73;34.00;;;9.40;84.90;;;;;;4974605;28;20409;-88
2021/04/19 06:16:56;;;;;;;39.88;33.95;;;9.60;85.30;;;;;;4974590;28;20417;-90
2021/04/19 06:19:23;;;;;;;43.03;34.97;;;9.70;85.60;;;;;;4976024;28;20180;-89
2021/04/19 06:21:50;;;;;;;43.70;35.47;;;9.70;85.40;;;;;;4975028;28;20783;-86
2021/04/19 06:24:16;;;;;;;41.73;35.40;;;9.80;85.50;;;;;;4975801;28;20893;-89
2021/04/19 06:26:44;;;;;;;42.50;37.27;;;9.80;85.40;;;;;;4975290;28;20501;-89
2021/04/19 06:29:11;;;;;;;46.37;38.40;;;9.80;85.30;;;;;;4973650;28;20477;-90
2021/04/19 06:31:44;;;;;;;44.23;35.80;;;9.80;85.30;;;;;;4973573;28;20828;-89
2021/04/19 06:34:15;;;;;;;45.57;36.50;;;9.90;85.40;;;;;;4976509;28;20466;-89
2021/04/19 06:36:45;;;;;;;46.30;37.20;;;9.90;84.60;;;;;;4975130;28;20476;-88
2021/04/19 06:39:13;;;;;;;44.47;35.30;;;9.90;84.40;;;;;;4979727;28;20410;-90
2021/04/19 06:41:40;;;;;;;47.57;38.10;;;9.90;85.10;;;;;;4979946;28;20446;-89
2021/04/19 06:44:06;;;;;;;41.33;35.13;;;9.90;85.50;;;;;;4979946;28;20449;-89
2021/04/19 06:46:38;;;;;;;44.50;35.57;;;9.90;85.70;;;;;;4980733;28;20468;-89
2021/04/19 06:49:05;;;;;;;43.33;35.50;;;9.90;85.00;;;;;;4980217;28;20464;-88
2021/04/19 06:51:32;;;;;;;41.57;32.60;;;10.00;83.50;;;;;;4977583;28;20520;-89
2021/04/19 06:53:59;;;;;;;45.00;33.00;;;10.00;83.70;;;;;;4978179;28;20445;-90
2021/04/19 06:56:27;;;;;;;40.73;33.60;;;10.00;83.40;;;;;;4961675;28;20425;-89
2021/04/19 06:58:55;;;;;;;37.47;32.20;;;10.20;83.40;;;;;;4978269;28;20778;-90
2021/04/19 07:01:23;;;;;;;34.33;29.73;;;10.20;82.80;;;;;;4982432;28;20438;-89
2021/04/19 07:03:54;;;;;;;34.43;30.73;;;10.10;82.20;;;;;;4969365;28;20409;-90
2021/04/19 07:11:43;;;;;;;33.73;29.97;;;10.30;81.40;;;;;;5125349;23;20513;-86
2021/04/19 07:14:12;;;;;;;37.43;29.30;;;10.50;84.00;;;;;;5338254;23;20564;-90
2021/04/19 07:19:25;;;;;;;31.67;28.10;;;11.50;84.10;;;;;;5224875;23;20502;-90
2021/04/19 07:21:55;;;;;;;35.43;28.43;;;10.30;85.10;;;;;;5118843;23;21486;-88
2021/04/19 07:24:29;;;;;;;29.17;26.17;;;12.60;86.80;;;;;;4936374;29;20423;-90
2021/04/19 07:26:56;;;;;;;29.67;26.50;;;12.20;83.00;;;;;;4924685;29;20540;-84
2021/04/19 07:29:22;;;;;;;28.00;23.67;;;10.90;80.40;;;;;;4918582;29;20506;-84
2021/04/19 07:31:52;;;;;;;26.63;23.50;;;10.70;79.30;;;;;;4918713;29;20442;-85
2021/04/19 07:34:26;;;;;;;27.87;23.17;;;10.30;78.20;;;;;;4935658;29;20418;-85
2021/04/19 07:37:12;;;;;;;24.00;21.60;;;10.80;78.50;;;;;;4935629;29;20411;-83
2021/04/19 07:39:39;;;;;;;23.53;21.23;;;10.90;77.90;;;;;;4936123;29;20443;-84
2021/04/19 07:42:07;;;;;;;22.40;20.20;;;11.00;77.30;;;;;;4934561;29;20502;-85
2021/04/19 07:44:47;;;;;;;23.73;21.53;;;11.10;76.80;;;;;;4934990;29;20482;-85
2021/04/19 07:47:40;;;;;;;22.47;20.00;;;11.20;76.00;;;;;;4947971;29;20474;-91
2021/04/19 07:50:18;;;;;;;29.43;25.00;;;11.20;74.60;;;;;;4895534;29;20803;-85
2021/04/19 07:52:55;;;;;;;22.60;20.40;;;11.30;73.40;;;;;;4921117;29;20618;-88
2021/04/19 07:55:24;;;;;;;21.67;19.40;;;11.30;74.40;;;;;;4921101;29;20411;-87
2021/04/19 07:57:50;;;;;;;18.87;17.03;;;11.40;74.40;;;;;;4920610;29;20518;-89
2021/04/19 08:00:29;;;;;;;16.87;15.23;;;12.40;75.30;;;;;;4937145;29;20411;-86
2021/04/19 08:02:58;;;;;;;16.10;14.77;;;11.70;72.30;;;;;;4946182;29;20419;-90
2021/04/19 08:05:48;;;;;;;16.80;15.50;;;15.10;77.80;;;;;;4946629;29;20422;-90
2021/04/19 08:08:18;;;;;;;16.20;14.87;;;12.40;70.50;;;;;;4941414;29;20451;-89
2021/04/19 08:10:46;;;;;;;15.93;14.53;;;11.90;69.50;;;;;;4940167;29;20473;-85
2021/04/19 08:13:20;;;;;;;13.77;12.70;;;13.50;71.20;;;;;;4920648;29;20546;-86
2021/04/19 08:15:46;;;;;;;13.00;12.00;;;12.10;66.00;;;;;;4579959;29;10000005;-86
2021/04/19 08:18:19;;;;;;;15.40;14.00;;;12.20;68.60;;;;;;4921704;29;20235;-89
2021/04/19 08:20:57;;;;;;;14.30;13.03;;;12.60;71.70;;;;;;4952728;28;20459;-91
2021/04/19 08:23:23;;;;;;;15.13;13.93;;;11.40;70.50;;;;;;4951968;29;20574;-91
2021/04/19 08:25:53;;;;;;;13.40;12.40;;;11.30;71.80;;;;;;4934729;29;20859;-83
2021/04/19 08:28:21;;;;;;;13.80;12.60;;;11.70;68.00;;;;;;4938936;29;20423;-89
2021/04/19 08:30:51;;;;;;;11.30;10.30;;;13.00;70.60;;;;;;4932391;29;20477;-92
2021/04/19 08:33:18;;;;;;;14.10;12.70;;;13.20;67.80;;;;;;4927728;29;20503;-91
2021/04/19 08:35:47;;;;;;;13.70;12.50;;;14.10;72.20;;;;;;4922237;29;20446;-92
2021/04/19 08:38:25;;;;;;;16.30;14.77;;;12.60;69.10;;;;;;4949816;29;20415;-92
2021/04/19 08:40:51;;;;;;;11.40;10.30;;;12.70;73.70;;;;;;4946129;29;20415;-90
2021/04/19 08:43:26;;;;;;;11.40;10.47;;;14.50;70.90;;;;;;4930370;29;20423;-88
2021/04/19 08:45:55;;;;;;;11.90;11.03;;;13.40;70.10;;;;;;4931111;29;20461;-91
2021/04/19 08:48:21;;;;;;;10.07;9.33;;;11.60;67.50;;;;;;4946877;29;20483;-90
2021/04/19 08:50:51;;;;;;;12.13;11.33;;;13.00;69.60;;;;;;4951638;29;20408;-92
2021/04/19 08:53:27;;;;;;;;;;;;;;;;;;;;;
2021/04/19 08:56:06;;;;;;;10.67;9.97;;;13.50;70.20;;;;;;4950569;29;20491;-92
2021/04/19 09:01:09;;;;;;;7.73;7.33;;;12.30;66.10;;;;;;4962725;23;20490;-92
2021/04/19 09:03:37;;;;;;;16.47;14.90;;;13.90;65.40;;;;;;4924548;29;20439;-92
2021/04/19 09:06:15;;;;;;;16.10;14.70;;;13.00;66.20;;;;;;4956783;29;20518;-88
2021/04/19 09:08:44;;;;;;;17.00;15.50;;;13.50;69.40;;;;;;5123268;23;21098;-91
2021/04/19 09:11:11;;;;;;;15.80;14.50;;;13.70;70.70;;;;;;4976182;28;20456;-91
2021/04/19 09:13:42;;;;;;;14.90;13.80;;;13.30;71.20;;;;;;4974203;28;20441;-90
2021/04/19 09:16:22;;;;;;;14.80;13.60;;;15.50;68.90;;;;;;4954613;29;20418;-90
2021/04/19 09:18:59;;;;;;;12.90;11.90;;;15.30;63.30;;;;;;5030368;23;20504;-90
2021/04/19 09:24:25;;;;;;;11.73;10.90;;;13.80;59.90;;;;;;5056263;23;20502;-88
2021/04/19 09:27:01;;;;;;;14.10;12.60;;;15.20;62.30;;;;;;4999041;23;20533;-86
2021/04/19 09:29:30;;;;;;;13.30;11.97;;;15.10;59.50;;;;;;4948209;29;20442;-90
2021/04/19 09:32:02;;;;;;;12.83;11.80;;;15.50;59.40;;;;;;4950483;29;20498;-91
2021/04/19 09:34:49;;;;;;;13.70;12.67;;;16.00;61.40;;;;;;4951776;29;20474;-89
2021/04/19 09:37:43;;;;;;;14.00;12.80;;;14.40;58.40;;;;;;4972736;28;20426;-87
2021/04/19 09:40:21;;;;;;;13.53;12.63;;;16.70;60.30;;;;;;4953028;29;20448;-90
2021/04/19 09:43:04;;;;;;;10.90;10.13;;;16.20;58.50;;;;;;4956739;29;20458;-89
2021/04/19 09:45:58;;;;;;;10.17;9.40;;;17.60;54.00;;;;;;4955435;29;20505;-89
2021/04/19 09:48:43;;;;;;;10.23;9.63;;;19.10;51.50;;;;;;4935425;29;20438;-90
2021/04/19 09:51:18;;;;;;;8.30;7.90;;;20.70;50.80;;;;;;4943607;29;20578;-87
2021/04/19 09:53:45;;;;;;;7.40;7.00;;;;;;;;;;4958459;29;20716;-88
2021/04/19 09:56:12;;;;;;;7.20;6.90;;;;;;;;;;4956405;28;20411;-90
2021/04/19 09:58:42;;;;;;;6.20;6.00;;;;;;;;;;4946675;29;20530;-90
2021/04/19 10:01:09;;;;;;;8.10;7.27;;;;;;;;;;4946526;29;20425;-90
2021/04/19 10:03:47;;;;;;;7.60;7.07;;;;;;;;;;4952650;29;20433;-91
2021/04/19 10:06:15;;;;;;;6.37;6.07;;;;;;;;;;4955995;29;20470;-87
2021/04/19 10:08:43;;;;;;;6.60;6.30;;;;;;;;;;4972222;28;20430;-86
2021/04/19 10:11:13;;;;;;;7.03;6.43;;;;;;;;;;4968977;28;20471;-90
2021/04/19 10:13:50;;;;;;;7.90;7.50;;;;;;;;;;5127112;23;20479;-90
2021/04/19 10:16:19;;;;;;;8.17;7.73;;;;;;;;;;5129945;23;20489;-89
2021/04/19 10:18:52;;;;;;;6.90;6.47;;;17.60;48.10;;;;;;5080605;23;20490;-89
2021/04/19 10:21:32;;;;;;;6.80;6.40;;;19.10;50.10;;;;;;4949590;29;20427;-88
2021/04/19 10:23:58;;;;;;;7.03;6.63;;;18.10;49.00;;;;;;4934793;29;20458;-90
2021/04/19 10:26:39;;;;;;;8.07;7.57;;;17.30;50.00;;;;;;4970918;29;20945;-90
2021/04/19 10:29:10;;;;;;;7.97;7.37;;;16.30;52.00;;;;;;4955013;29;20418;-91
2021/04/19 10:31:36;;;;;;;8.20;7.57;;;15.60;52.50;;;;;;4968953;29;20427;-90
2021/04/19 10:34:11;;;;;;;7.13;6.73;;;15.90;53.40;;;;;;4974134;29;20422;-90
2021/04/19 10:36:44;;;;;;;8.60;8.00;;;15.80;53.10;;;;;;4971323;29;20433;-87
2021/04/19 10:39:16;;;;;;;8.00;7.23;;;16.30;52.70;;;;;;4960798;29;20532;-85
2021/04/19 10:41:42;;;;;;;6.13;5.80;;;17.20;50.90;;;;;;4611349;29;10001123;-86
2021/04/19 10:44:08;;;;;;;6.60;6.20;;;19.20;47.60;;;;;;4933975;29;20822;-84
2021/04/19 10:46:37;;;;;;;5.90;5.50;;;21.40;44.70;;;;;;4933994;29;20575;-84
2021/04/19 10:49:04;;;;;;;5.23;5.13;;;22.90;40.70;;;;;;4916521;29;20555;-85
2021/04/19 10:51:38;;;;;;;5.00;4.80;;;22.90;38.10;;;;;;4933619;29;20418;-85
2021/04/19 10:54:07;;;;;;;4.47;4.37;;;22.00;37.60;;;;;;4933412;29;20907;-84
2021/04/19 10:56:34;;;;;;;4.73;4.53;;;21.30;38.40;;;;;;4915860;29;20753;-84
2021/04/19 10:59:06;;;;;;;6.13;5.73;;;20.70;39.50;;;;;;4933431;29;20411;-86
2021/04/19 11:01:45;;;;;;;5.13;4.93;;;20.30;40.90;;;;;;4933240;29;20403;-85
2021/04/19 11:04:14;;;;;;;5.50;5.27;;;20.00;40.60;;;;;;4916572;29;20756;-85
2021/04/19 11:06:40;;;;;;;5.83;5.50;;;19.50;41.60;;;;;;4933135;29;20462;-84
2021/04/19 11:09:27;;;;;;;6.37;5.97;;;19.20;42.30;;;;;;4916478;29;20423;-85
2021/04/19 11:11:57;;;;;;;5.47;5.27;;;18.80;43.50;;;;;;4933771;29;20202;-90
2021/04/19 11:14:47;;;;;;;5.63;5.43;;;18.40;44.60;;;;;;4937334;29;20427;-91
2021/04/19 11:17:17;;;;;;;6.20;5.80;;;18.00;44.80;;;;;;4945586;29;20411;-91
2021/04/19 11:19:46;;;;;;;6.10;5.13;;;17.00;45.50;;;;;;4950382;29;20471;-89
2021/04/19 11:22:24;;;;;;;7.27;6.80;;;17.60;46.10;;;;;;4935134;29;20430;-89
2021/04/19 11:24:50;;;;;;;6.20;5.90;;;17.40;47.10;;;;;;4930204;29;20498;-88
2021/04/19 11:27:27;;;;;;;6.53;6.20;;;18.80;48.60;;;;;;4944463;29;20474;-88
2021/04/19 11:32:40;;;;;;;6.40;5.87;;;16.60;48.70;;;;;;4972041;23;20486;-89
2021/04/19 11:35:07;;;;;;;6.47;5.97;;;16.70;51.00;;;;;;4953946;29;20422;-87
2021/04/19 11:37:38;;;;;;;6.00;5.70;;;15.80;49.60;;;;;;4918585;29;20442;-90
2021/04/19 11:40:25;;;;;;;7.03;5.90;;;16.50;51.10;;;;;;4952377;28;20439;-89
2021/04/19 11:42:50;;;;;;;5.87;5.47;;;15.60;50.70;;;;;;4943672;29;20926;-87
2021/04/19 11:45:24;;;;;;;5.43;5.23;;;14.90;50.20;;;;;;4935799;29;20514;-86
2021/04/19 11:47:50;;;;;;;7.27;6.60;;;15.20;50.60;;;;;;4935787;29;20174;-85
2021/04/19 11:50:16;;;;;;;8.33;7.00;;;15.50;51.80;;;;;;4918670;29;20426;-86
2021/04/19 11:52:46;;;;;;;9.50;8.60;;;16.30;52.60;;;;;;4935548;29;20423;-85
2021/04/19 11:55:14;;;;;;;7.30;6.70;;;14.80;52.60;;;;;;4934288;29;20435;-85
2021/04/19 11:57:46;;;;;;;7.07;6.67;;;14.90;52.50;;;;;;4935947;29;20530;-88
2021/04/19 12:00:32;;;;;;;5.70;5.20;;;14.80;51.50;;;;;;4955745;29;20395;-90
2021/04/19 12:03:00;;;;;;;9.33;8.50;;;14.80;52.40;;;;;;4924650;29;20427;-85
2021/04/19 12:05:29;;;;;;;8.27;7.75;;;14.90;53.10;;;;;;4597541;29;10001048;-86
2021/04/19 12:07:54;;;;;;;10.53;9.47;;;15.00;52.40;;;;;;4932593;29;20533;-84
2021/04/19 12:10:20;;;;;;;9.07;8.30;;;15.10;52.40;;;;;;4933841;29;21021;-86
2021/04/19 12:13:05;;;;;;;5.77;5.47;;;15.30;51.80;;;;;;4942804;29;20179;-93
2021/04/19 12:15:31;;;;;;;7.40;5.63;;;16.30;50.80;;;;;;4949732;29;20163;-85
2021/04/19 12:17:56;;;;;;;5.67;5.30;;;15.50;49.70;;;;;;4935573;29;20413;-85
2021/04/19 12:20:23;;;;;;;5.33;5.17;;;16.90;49.00;;;;;;4936506;29;20982;-86
2021/04/19 12:22:48;;;;;;;5.53;5.23;;;16.00;49.20;;;;;;4935756;29;20210;-85
2021/04/19 12:25:15;;;;;;;7.30;5.93;;;16.10;48.50;;;;;;4935370;29;20837;-86
2021/04/19 12:27:41;;;;;;;7.30;6.70;;;16.10;49.00;;;;;;4935770;29;20831;-86
2021/04/19 12:30:07;;;;;;;7.27;6.80;;;16.20;49.30;;;;;;4936229;29;20412;-85
2021/04/19 12:32:33;;;;;;;8.10;7.50;;;16.10;49.30;;;;;;4935529;29;20881;-85
2021/04/19 12:34:59;;;;;;;9.30;8.70;;;16.50;49.10;;;;;;4935624;29;20502;-84
2021/04/19 12:37:24;;;;;;;10.57;9.53;;;15.80;49.30;;;;;;4934639;29;20479;-86
2021/04/19 12:39:50;;;;;;;10.13;9.30;;;15.50;50.00;;;;;;4935840;29;20203;-86
2021/04/19 12:42:15;;;;;;;9.63;9.00;;;15.50;49.80;;;;;;4935525;29;20214;-85
2021/04/19 12:44:41;;;;;;;10.37;9.47;;;15.50;49.60;;;;;;4918598;29;20183;-86
2021/04/19 12:47:06;;;;;;;10.37;9.67;;;15.70;49.00;;;;;;4935778;29;20218;-85
2021/04/19 12:49:32;;;;;;;9.80;8.90;;;15.70;49.40;;;;;;4935091;29;20171;-86
2021/04/19 12:51:59;;;;;;;11.13;10.13;;;15.80;49.70;;;;;;4934690;29;20194;-86
2021/04/19 12:54:24;;;;;;;10.13;9.20;;;16.00;48.80;;;;;;4935076;29;20179;-87
2021/04/19 12:56:50;;;;;;;10.60;9.90;;;16.10;48.20;;;;;;4918430;29;20434;-86
2021/04/19 12:59:16;;;;;;;8.90;8.20;;;16.20;48.30;;;;;;4935572;29;20234;-85
2021/04/19 13:01:43;;;;;;;10.13;9.33;;;16.20;47.70;;;;;;4935430;29;20519;-85
2021/04/19 13:04:13;;;;;;;9.73;9.03;;;16.10;48.60;;;;;;4935317;29;20262;-85
2021/04/19 13:06:40;;;;;;;11.10;10.10;;;16.30;48.90;;;;;;4925477;29;20475;-83
2021/04/19 13:09:12;;;;;;;10.47;9.57;;;16.40;47.80;;;;;;4931980;29;20419;-91
2021/04/19 13:11:41;;;;;;;11.13;10.03;;;16.90;47.90;;;;;;4950809;29;20517;-91